Time;durP1;ratioP1;P1;durP2;ratioP2;P2;SDS_P1;SDS_P2;PMS_P1;PMS_P2;Temp;Humidity;BMP_temperature;BMP_pressure;BME280_temperature;BME280_humidity;BME280_pressure;Samples;Min_cycle;Max_cycle;Signal;HPM_P1;HPM_P2
2022/04/28 00:01:39;;;;;;;15.40;8.60;;;;;;;7.72;59.70;101645.25;8582045;33;20396;-73
2022/04/28 00:06:42;;;;;;;16.95;8.60;;;;;;;7.67;59.88;101642.78;8581443;33;20942;-73
2022/04/28 00:11:51;;;;;;;15.55;8.55;;;;;;;7.81;59.70;101650.13;8581971;33;20470;-73
2022/04/28 00:16:54;;;;;;;13.57;8.38;;;;;;;7.77;59.45;101645.03;8578207;33;20151;-74
2022/04/28 00:21:57;;;;;;;16.75;8.43;;;;;;;7.75;59.34;101649.59;8581746;33;20713;-74
2022/04/28 00:27:01;;;;;;;13.68;7.88;;;;;;;7.59;59.70;101649.47;8585190;33;20361;-74
2022/04/28 00:32:06;;;;;;;17.17;8.02;;;;;;;7.53;59.88;101655.97;8563803;33;20456;-75
2022/04/28 00:37:09;;;;;;;12.13;7.47;;;;;;;7.60;59.48;101654.75;8562768;33;20554;-75
2022/04/28 00:42:16;;;;;;;13.85;7.72;;;;;;;7.69;59.85;101654.28;8588769;33;20144;-74
2022/04/28 00:47:19;;;;;;;14.65;8.45;;;;;;;7.57;59.77;101644.22;8588747;33;20426;-75
2022/04/28 00:52:23;;;;;;;17.02;8.63;;;;;;;7.37;60.07;101649.63;8587804;33;21220;-73
2022/04/28 00:57:33;;;;;;;15.50;7.82;;;;;;;7.37;60.19;101660.31;8577807;33;20755;-74
2022/04/28 01:02:36;;;;;;;12.52;7.68;;;;;;;7.35;60.22;101660.41;8568880;33;20503;-75
2022/04/28 01:07:40;;;;;;;13.48;8.13;;;;;;;7.47;60.14;101650.94;8566428;33;20406;-75
2022/04/28 01:12:46;;;;;;;11.30;7.57;;;;;;;7.36;60.19;101656.78;8559528;33;20586;-73
2022/04/28 01:17:49;;;;;;;12.77;8.02;;;;;;;7.21;60.13;101655.72;8561068;33;20459;-74
2022/04/28 01:22:54;;;;;;;19.65;9.23;;;;;;;7.12;60.81;101663.28;8580583;33;20435;-74
2022/04/28 01:27:57;;;;;;;18.95;8.48;;;;;;;7.11;60.74;101670.44;8581956;33;20152;-74
2022/04/28 01:33:01;;;;;;;14.68;7.35;;;;;;;7.14;60.77;101664.94;8558120;33;20414;-74
2022/04/28 01:38:06;;;;;;;11.75;7.15;;;;;;;7.03;60.78;101668.09;8560321;33;20151;-74
2022/04/28 01:43:09;;;;;;;14.35;7.82;;;;;;;6.81;61.48;101670.00;8557455;33;20423;-74
2022/04/28 01:48:12;;;;;;;14.95;7.88;;;;;;;6.68;61.85;101669.66;8553759;33;20423;-74
2022/04/28 01:59:06;;;;;;;17.45;8.40;;;;;;;6.10;63.65;101674.84;8550099;33;20147;-74
2022/04/28 02:04:39;;;;;;;14.50;8.15;;;;;;;6.04;64.06;101669.78;8521812;33;20163;-74
2022/04/28 02:09:46;;;;;;;15.45;8.13;;;;;;;6.00;64.56;101671.69;8547916;33;20424;-74
2022/04/28 02:14:50;;;;;;;17.15;7.88;;;;;;;5.97;64.11;101668.28;8573221;33;20420;-74
2022/04/28 02:20:12;;;;;;;15.17;7.87;;;;;;;5.91;64.85;101672.06;8573031;33;20412;-74
2022/04/28 02:25:19;;;;;;;14.55;8.00;;;;;;;5.94;64.69;101667.47;8578662;33;20421;-74
2022/04/28 02:30:23;;;;;;;13.05;7.43;;;;;;;6.10;64.26;101669.50;8557640;33;20872;-74
2022/04/28 02:35:26;;;;;;;14.43;7.32;;;;;;;5.94;64.66;101672.81;8567757;33;20451;-74
2022/04/28 02:40:32;;;;;;;17.15;7.95;;;;;;;5.99;64.56;101666.44;8595740;33;20634;-74
2022/04/28 02:45:38;;;;;;;17.23;8.25;;;;;;;6.05;64.04;101667.03;8594912;33;20136;-75
2022/04/28 02:50:42;;;;;;;14.63;7.93;;;;;;;5.90;64.29;101657.00;8574442;33;20136;-73
2022/04/28 02:55:46;;;;;;;14.07;7.93;;;;;;;5.85;64.43;101664.31;8563248;33;20156;-74
2022/04/28 03:00:49;;;;;;;13.83;7.80;;;;;;;5.78;65.10;101669.03;8560973;33;20434;-73
2022/04/28 03:11:30;;;;;;;14.57;7.88;;;;;;;5.62;65.39;101673.22;8383970;34;20443;-75
2022/04/28 03:16:33;;;;;;;15.13;8.52;;;;;;;5.35;66.31;101678.75;8538165;33;20447;-74
2022/04/28 03:21:39;;;;;;;17.58;8.27;;;;;;;5.16;66.63;101678.56;8579500;33;20632;-75
2022/04/28 03:26:44;;;;;;;19.48;8.27;;;;;;;5.32;66.54;101672.63;8557935;33;20451;-75
2022/04/28 03:31:50;;;;;;;16.48;8.52;;;;;;;5.52;65.77;101669.22;8577664;33;20246;-75
2022/04/28 03:37:27;;;;;;;17.42;8.40;;;;;;;5.59;65.48;101676.03;8569524;33;20444;-74
2022/04/28 03:42:31;;;;;;;16.98;8.43;;;;;;;5.62;64.90;101679.47;8576728;33;20743;-76
2022/04/28 03:47:36;;;;;;;15.88;8.48;;;;;;;5.57;64.94;101684.09;8552942;33;20466;-75
2022/04/28 03:52:40;;;;;;;14.55;8.55;;;;;;;5.61;64.73;101679.50;8576598;33;20924;-75
2022/04/28 03:57:45;;;;;;;15.93;7.93;;;;;;;5.42;64.96;101682.88;8575937;33;21064;-74
2022/04/28 04:02:49;;;;;;;16.52;7.93;;;;;;;5.37;65.69;101690.19;8546976;33;20243;-75
2022/04/28 04:07:52;;;;;;;17.38;8.90;;;;;;;5.30;65.89;101688.72;8567312;33;20544;-75
2022/04/28 04:13:09;;;;;;;15.25;8.18;;;;;;;5.33;65.73;101691.25;8548020;33;20143;-74
2022/04/28 04:18:12;;;;;;;16.25;8.25;;;;;;;5.57;65.52;101697.44;8580411;33;20408;-77
2022/04/28 04:23:24;;;;;;;14.40;8.30;;;;;;;5.57;64.97;101697.44;8557815;33;20400;-76
2022/04/28 04:28:28;;;;;;;16.63;8.90;;;;;;;5.57;65.01;101697.44;8584235;33;20144;-76
2022/04/28 04:33:35;;;;;;;19.83;8.60;;;;;;;5.52;64.99;101699.41;8551801;33;21000;-77
2022/04/28 04:38:39;;;;;;;18.17;7.75;;;;;;;5.54;65.17;101708.22;8550184;33;20422;-76
2022/04/28 04:43:45;;;;;;;15.70;7.97;;;;;;;5.61;64.89;101709.69;8550195;33;20422;-76
2022/04/28 04:48:48;;;;;;;15.65;8.57;;;;;;;5.58;65.34;101724.94;8550577;33;20239;-76
2022/04/28 04:54:12;;;;;;;19.85;8.25;;;;;;;5.65;65.07;101722.00;8551576;33;20124;-76
2022/04/28 04:59:16;;;;;;;18.02;8.63;;;;;;;5.81;64.88;101724.03;8575499;33;20152;-76
2022/04/28 05:04:19;;;;;;;16.00;8.82;;;;;;;5.75;64.83;101733.16;8551799;33;20511;-76
2022/04/28 05:09:45;;;;;;;18.27;9.90;;;;;;;5.54;65.56;101737.53;8572502;33;20230;-76
2022/04/28 05:14:50;;;;;;;16.83;9.50;;;;;;;5.45;66.38;101746.72;8553120;33;20640;-76
2022/04/28 05:19:56;;;;;;;19.92;10.45;;;;;;;5.40;66.14;101747.84;8555634;33;20140;-76
2022/04/28 05:25:30;;;;;;;19.67;9.98;;;;;;;5.66;66.59;101745.06;8530229;33;20225;-76
2022/04/28 05:30:55;;;;;;;20.15;10.38;;;;;;;5.85;66.40;101745.19;8581788;33;20956;-75
2022/04/28 05:36:17;;;;;;;17.75;9.88;;;;;;;5.93;66.13;101743.09;8580284;33;20572;-75
2022/04/28 05:41:20;;;;;;;21.77;10.45;;;;;;;6.05;66.20;101755.06;8580645;33;20608;-74
2022/04/28 05:46:25;;;;;;;19.40;10.40;;;;;;;6.22;65.97;101749.03;8579461;33;20588;-75
2022/04/28 05:51:29;;;;;;;17.77;9.77;;;;;;;6.04;66.97;101757.81;8556325;33;20136;-76
2022/04/28 05:56:33;;;;;;;21.77;11.82;;;;;;;6.13;66.69;101771.63;8573867;33;20415;-75
2022/04/28 06:01:39;;;;;;;20.63;11.10;;;;;;;6.16;66.31;101774.16;8550369;33;20141;-75
2022/04/28 06:06:45;;;;;;;24.00;12.27;;;;;;;6.42;65.79;101774.03;8552712;33;20448;-75
2022/04/28 06:12:10;;;;;;;17.88;9.77;;;;;;;6.99;64.81;101773.41;8546938;33;20144;-75
2022/04/28 06:17:46;;;;;;;20.90;9.50;;;;;;;7.30;61.89;101764.00;8540724;33;20163;-74
2022/04/28 06:22:50;;;;;;;18.42;8.07;;;;;;;7.53;62.08;101772.78;8550593;33;20851;-75
2022/04/28 06:27:53;;;;;;;15.00;8.27;;;;;;;7.79;61.73;101774.22;8553459;33;20144;-76
2022/04/28 06:32:58;;;;;;;15.90;8.90;;;;;;;8.04;61.49;101781.97;8550426;33;20136;-75
2022/04/28 06:38:21;;;;;;;16.63;9.20;;;;;;;8.25;60.95;101783.56;8575078;33;20404;-75
2022/04/28 06:43:24;;;;;;;16.83;9.48;;;;;;;8.43;59.88;101794.34;8550187;33;20415;-75
2022/04/28 06:48:47;;;;;;;17.23;8.52;;;;;;;8.57;60.39;101797.22;8572441;33;20762;-76
2022/04/28 06:54:20;;;;;;;13.43;7.70;;;;;;;8.93;60.11;101794.47;8501328;33;20353;-73
2022/04/28 06:59:29;;;;;;;17.40;7.53;;;;;;;9.43;58.17;101798.09;8549839;33;20506;-74
2022/04/28 07:04:34;;;;;;;13.63;6.60;;;;;;;9.70;56.56;101798.41;8575114;33;20163;-74
2022/04/28 07:09:38;;;;;;;18.35;8.38;;;;;;;10.03;54.18;101798.38;8553053;33;20289;-74
2022/04/28 07:15:02;;;;;;;13.75;6.20;;;;;;;10.40;53.94;101801.69;8560578;33;20404;-74
2022/04/28 07:20:41;;;;;;;13.35;7.72;;;;;;;10.57;52.97;101793.50;8583726;33;20170;-74
2022/04/28 07:25:44;;;;;;;13.70;6.70;;;;;;;10.90;52.99;101803.19;8578364;33;20440;-74
2022/04/28 07:30:47;;;;;;;12.35;6.53;;;;;;;11.09;51.62;101805.63;8570666;33;20412;-73
2022/04/28 07:36:13;;;;;;;10.75;5.43;;;;;;;11.53;50.29;101806.59;8576903;33;20423;-74
2022/04/28 07:41:48;;;;;;;11.50;6.40;;;;;;;11.58;50.84;101807.16;8562189;33;20197;-74
2022/04/28 07:46:51;;;;;;;10.60;5.63;;;;;;;11.79;49.13;101813.84;8560678;33;20275;-76
2022/04/28 07:51:59;;;;;;;10.95;6.28;;;;;;;11.95;48.24;101824.53;8585964;33;20140;-74
2022/04/28 07:57:04;;;;;;;10.73;5.43;;;;;;;11.86;48.58;101819.72;8578308;33;20412;-75
2022/04/28 08:02:13;;;;;;;12.60;6.38;;;;;;;11.94;48.19;101815.59;8553098;33;20287;-76
2022/04/28 08:07:22;;;;;;;15.20;6.90;;;;;;;12.11;49.03;101825.25;8551504;33;20160;-76
2022/04/28 08:12:29;;;;;;;10.13;6.60;;;;;;;12.34;48.24;101831.00;8548777;33;20625;-74
2022/04/28 08:18:10;;;;;;;11.73;6.93;;;;;;;11.93;47.58;101845.31;8574945;33;20913;-74
2022/04/28 08:23:15;;;;;;;13.32;7.63;;;;;;;12.37;47.95;101837.06;8553613;33;20151;-75
2022/04/28 08:28:18;;;;;;;16.50;8.30;;;;;;;12.64;47.25;101827.25;8578401;33;20431;-73
2022/04/28 08:33:22;;;;;;;13.50;7.35;;;;;;;12.97;47.53;101841.16;8552914;33;20629;-74
2022/04/28 08:38:27;;;;;;;17.70;8.18;;;;;;;12.66;46.98;101841.50;8553341;33;20466;-74
2022/04/28 08:43:32;;;;;;;14.40;8.65;;;;;;;12.97;47.02;101843.88;8556108;33;21011;-75
2022/04/28 08:48:37;;;;;;;15.75;8.07;;;;;;;13.46;46.88;101848.56;8558299;33;20406;-74
2022/04/28 08:54:03;;;;;;;11.55;7.57;;;;;;;13.88;45.26;101851.91;8563867;33;20957;-77
2022/04/28 08:59:08;;;;;;;14.52;8.50;;;;;;;13.63;44.21;101850.09;8568958;33;21030;-75
2022/04/28 09:04:13;;;;;;;17.60;8.23;;;;;;;13.60;44.70;101846.75;8571957;33;21103;-76
2022/04/28 09:09:26;;;;;;;14.48;7.88;;;;;;;14.01;45.49;101851.00;8595604;33;20648;-77
2022/04/28 09:14:37;;;;;;;15.48;8.10;;;;;;;14.73;44.57;101854.69;8595924;33;20943;-76
2022/04/28 09:19:41;;;;;;;17.75;7.82;;;;;;;14.47;43.74;101842.25;8595579;33;20442;-77
2022/04/28 09:24:59;;;;;;;15.13;7.85;;;;;;;14.88;43.50;101849.94;8568893;33;20525;-75
2022/04/28 09:30:07;;;;;;;13.32;7.63;;;;;;;14.63;42.94;101848.25;8584670;33;20147;-76
2022/04/28 09:35:16;;;;;;;25.00;8.85;;;;;;;15.03;42.08;101842.53;8566953;33;20140;-74
2022/04/28 09:45:43;;;;;;;14.45;8.27;;;;;;;15.75;43.02;101839.59;8556526;33;21050;-75
2022/04/28 09:50:47;;;;;;;14.38;8.02;;;;;;;15.16;41.80;101832.44;8577946;33;20179;-74
2022/04/28 09:56:26;;;;;;;14.98;8.10;;;;;;;14.85;42.78;101838.50;8570368;33;20194;-74
2022/04/28 10:01:53;;;;;;;16.27;8.75;;;;;;;15.47;42.12;101839.09;8580593;33;20174;-74
2022/04/28 10:06:58;;;;;;;19.50;8.10;;;;;;;15.67;41.95;101826.66;8556695;33;20419;-74
2022/04/28 10:12:11;;;;;;;17.15;9.43;;;;;;;15.46;41.94;101815.66;8557446;33;20416;-74
2022/04/28 10:17:35;;;;;;;15.80;8.63;;;;;;;15.95;41.42;101819.00;8577835;33;20452;-74
2022/04/28 10:22:40;;;;;;;12.80;7.68;;;;;;;16.48;40.69;101816.47;8553379;33;20149;-74
2022/04/28 10:33:29;;;;;;;13.43;7.57;;;;;;;16.46;39.28;101821.16;8579484;33;20457;-76
2022/04/28 10:38:35;;;;;;;10.50;7.70;;;;;;;17.06;40.16;101820.63;8577355;33;20532;-76
2022/04/28 10:43:41;;;;;;;12.05;7.75;;;;;;;17.14;39.00;101819.03;8580115;33;20550;-75
2022/04/28 10:48:48;;;;;;;15.05;9.07;;;;;;;16.93;38.28;101816.28;8578512;33;20152;-75
2022/04/28 10:54:04;;;;;;;15.90;8.60;;;;;;;17.37;39.14;101825.16;8578144;33;20416;-76
2022/04/28 10:59:35;;;;;;;17.35;9.43;;;;;;;18.20;38.61;101815.09;8572767;33;20942;-76
2022/04/28 11:04:41;;;;;;;16.10;10.05;;;;;;;18.34;38.48;101811.09;8570924;33;20140;-75
2022/04/28 11:09:55;;;;;;;14.23;9.65;;;;;;;18.49;37.70;101817.00;8570605;33;20839;-76
2022/04/28 11:15:05;;;;;;;17.35;9.18;;;;;;;18.91;37.66;101806.72;8570428;33;20941;-76
2022/04/28 11:20:13;;;;;;;18.13;9.30;;;;;;;18.34;36.96;101813.81;8555433;33;20197;-74
2022/04/28 11:25:28;;;;;;;16.10;9.60;;;;;;;17.28;38.70;101809.69;8608624;33;20640;-76
2022/04/28 11:30:35;;;;;;;14.43;9.18;;;;;;;17.55;39.59;101811.84;8585821;33;20414;-75
2022/04/28 11:35:40;;;;;;;12.65;8.40;;;;;;;16.62;39.41;101801.75;8585240;33;20494;-75
2022/04/28 11:40:44;;;;;;;15.93;9.00;;;;;;;17.82;38.20;101802.22;8586005;33;20671;-76
2022/04/28 11:45:49;;;;;;;16.08;9.07;;;;;;;18.94;34.79;101805.56;8587211;33;20419;-75
2022/04/28 11:50:53;;;;;;;13.50;8.18;;;;;;;18.39;35.42;101797.94;8584396;33;20865;-75
2022/04/28 11:55:56;;;;;;;16.85;9.35;;;;;;;18.60;37.27;101796.97;8584076;33;20589;-75
2022/04/28 12:01:01;;;;;;;17.60;10.00;;;;;;;18.33;37.91;101793.06;8592718;33;20147;-76
2022/04/28 12:06:06;;;;;;;15.27;9.13;;;;;;;18.96;35.08;101789.94;8590552;33;20687;-75
2022/04/28 12:21:49;;;;;;;15.68;9.30;;;;;;;19.55;33.17;101791.50;8583241;33;20410;-75
2022/04/28 12:26:53;;;;;;;13.52;9.10;;;;;;;20.49;34.72;101787.75;8584061;33;20154;-76
2022/04/28 12:31:57;;;;;;;14.77;8.60;;;;;;;20.07;34.42;101785.53;8584435;33;20180;-76
2022/04/28 12:37:26;;;;;;;13.70;9.52;;;;;;;19.45;36.40;101794.28;8595501;33;21149;-75
2022/04/28 12:42:44;;;;;;;17.40;10.00;;;;;;;20.48;34.82;101784.13;8595531;33;20289;-75
2022/04/28 12:47:51;;;;;;;17.38;10.07;;;;;;;18.62;37.21;101784.91;8595906;33;20166;-74
2022/04/28 12:52:54;;;;;;;14.32;8.80;;;;;;;17.93;35.46;101780.34;8599728;33;20501;-76
2022/04/28 12:57:59;;;;;;;13.63;9.48;;;;;;;19.59;36.28;101784.78;8598316;33;20170;-75
2022/04/28 13:03:05;;;;;;;13.65;9.23;;;;;;;20.19;35.13;101780.75;8603968;33;20191;-76
2022/04/28 13:08:09;;;;;;;10.75;8.18;;;;;;;21.14;33.60;101781.97;8604056;33;21004;-75
2022/04/28 13:13:12;;;;;;;13.98;8.43;;;;;;;21.42;32.28;101780.81;8577213;33;20136;-75
2022/04/28 13:18:16;;;;;;;15.80;8.95;;;;;;;21.13;33.91;101777.53;8598266;33;20624;-75
2022/04/28 13:23:19;;;;;;;16.00;8.85;;;;;;;21.41;32.27;101778.22;8597363;33;20307;-75
2022/04/28 13:28:22;;;;;;;13.63;8.60;;;;;;;21.30;32.00;101767.56;8594187;33;20280;-74
2022/04/28 13:33:27;;;;;;;10.00;7.78;;;;;;;21.28;30.83;101755.94;8589405;33;20470;-75
2022/04/28 13:38:30;;;;;;;12.07;8.23;;;;;;;21.12;31.84;101743.91;8599178;33;20148;-75
2022/04/28 13:43:34;;;;;;;13.48;8.15;;;;;;;21.08;32.35;101749.84;8604525;33;20201;-75
2022/04/28 13:48:39;;;;;;;15.07;8.60;;;;;;;20.76;32.67;101745.81;8606881;33;20665;-75
2022/04/28 13:53:44;;;;;;;11.02;8.27;;;;;;;20.78;31.81;101741.91;8590668;33;20443;-76
2022/04/28 13:58:47;;;;;;;10.82;7.18;;;;;;;21.41;30.00;101739.94;8586547;33;20155;-75
2022/04/28 14:03:52;;;;;;;11.07;6.97;;;;;;;21.33;30.70;101739.91;8584953;33;20519;-75
2022/04/28 14:08:55;;;;;;;13.63;7.38;;;;;;;21.57;31.00;101734.56;8590040;33;20159;-75
2022/04/28 14:13:58;;;;;;;9.77;6.80;;;;;;;21.00;31.39;101729.59;8586467;33;20413;-75
2022/04/28 14:19:03;;;;;;;10.63;7.70;;;;;;;21.55;30.60;101730.28;8585964;33;20412;-74
2022/04/28 14:24:08;;;;;;;12.90;8.15;;;;;;;21.60;30.03;101723.28;8586697;33;20162;-75
2022/04/28 14:29:11;;;;;;;14.55;8.13;;;;;;;21.51;31.09;101721.56;8582574;33;20959;-74
2022/04/28 14:34:19;;;;;;;15.32;8.77;;;;;;;20.52;30.59;101700.94;8585152;33;20944;-75
2022/04/28 14:39:22;;;;;;;17.35;8.30;;;;;;;20.95;31.62;101706.50;8590964;33;20443;-75
2022/04/28 14:44:26;;;;;;;11.98;8.60;;;;;;;21.26;31.46;101704.19;8583411;33;20870;-76
2022/04/28 14:54:56;;;;;;;13.10;8.32;;;;;;;22.16;29.95;101703.63;8584239;33;20513;-76
2022/04/28 15:00:00;;;;;;;13.05;7.78;;;;;;;21.85;30.16;101705.13;8581759;33;20175;-75
2022/04/28 15:05:06;;;;;;;10.20;7.72;;;;;;;21.97;30.62;101697.47;8581519;33;20467;-75
2022/04/28 15:10:09;;;;;;;12.68;7.30;;;;;;;22.07;30.46;101700.03;8580602;33;20446;-75
2022/04/28 15:15:14;;;;;;;12.43;7.75;;;;;;;21.07;31.26;101697.09;8582448;33;20455;-75
2022/04/28 15:20:19;;;;;;;9.65;7.68;;;;;;;21.54;30.57;101701.25;8584461;33;20144;-75
2022/04/28 15:25:22;;;;;;;10.85;6.90;;;;;;;21.11;30.83;101705.78;8584235;33;20155;-75
2022/04/28 15:30:25;;;;;;;11.30;7.15;;;;;;;21.56;30.47;101696.47;8577557;33;20152;-76
2022/04/28 15:35:29;;;;;;;9.07;6.60;;;;;;;21.42;30.09;101703.41;8548675;33;20386;-75
2022/04/28 15:40:33;;;;;;;9.68;6.28;;;;;;;21.08;30.18;101704.25;8549473;33;20426;-75
2022/04/28 15:45:36;;;;;;;7.10;5.70;;;;;;;21.02;30.52;101692.06;8576978;33;21693;-75
2022/04/28 15:50:41;;;;;;;9.43;5.70;;;;;;;21.09;29.60;101691.44;8579544;33;20477;-75
2022/04/28 15:55:44;;;;;;;9.95;5.35;;;;;;;21.05;29.61;101690.06;8577208;33;20140;-76
2022/04/28 16:00:47;;;;;;;8.75;5.88;;;;;;;21.38;29.09;101691.09;8578443;33;20179;-76
2022/04/28 16:05:51;;;;;;;6.70;4.50;;;;;;;21.33;28.72;101686.09;8579566;33;20144;-75
2022/04/28 16:10:55;;;;;;;7.95;5.35;;;;;;;21.22;29.83;101679.03;8582479;33;21127;-76
2022/04/28 16:15:58;;;;;;;12.27;5.43;;;;;;;21.44;30.45;101680.34;8584722;33;20594;-74
2022/04/28 16:21:03;;;;;;;6.83;5.60;;;;;;;21.43;30.62;101685.97;8584254;33;20871;-74
2022/04/28 16:26:08;;;;;;;8.88;5.45;;;;;;;20.85;30.99;101683.94;8593571;33;20282;-76
2022/04/28 16:31:11;;;;;;;6.90;5.35;;;;;;;21.01;31.56;101681.31;8597931;33;20201;-75
2022/04/28 16:36:15;;;;;;;8.10;5.95;;;;;;;20.74;31.77;101677.72;8600194;33;20142;-75
2022/04/28 16:41:18;;;;;;;12.90;7.50;;;;;;;20.73;32.17;101675.13;8601069;33;20575;-73
2022/04/28 16:46:21;;;;;;;12.52;6.82;;;;;;;20.05;32.73;101670.31;8601050;33;20517;-73
2022/04/28 16:51:27;;;;;;;10.50;7.32;;;;;;;20.17;33.63;101677.22;8602055;33;20437;-74
2022/04/28 16:56:32;;;;;;;10.32;8.25;;;;;;;20.13;34.36;101676.69;8594364;33;20187;-75
2022/04/28 17:01:35;;;;;;;12.02;8.85;;;;;;;20.03;34.24;101675.91;8594325;33;20262;-74
2022/04/28 17:06:39;;;;;;;13.65;9.13;;;;;;;20.00;34.54;101678.94;8592699;33;20978;-74
2022/04/28 17:11:43;;;;;;;13.30;9.27;;;;;;;20.15;34.78;101683.84;8594166;33;20579;-73
2022/04/28 17:16:49;;;;;;;13.95;9.93;;;;;;;22.75;31.39;101672.34;8592686;33;20204;-76
2022/04/28 17:21:54;;;;;;;12.63;8.90;;;;;;;23.85;29.63;101683.47;8594625;33;20325;-74
2022/04/28 17:26:57;;;;;;;16.17;8.82;;;;;;;22.18;31.71;101683.28;8595554;33;20136;-74
2022/04/28 17:32:03;;;;;;;15.60;9.52;;;;;;;21.12;32.98;101683.78;8598014;33;20301;-73
2022/04/28 17:37:10;;;;;;;15.60;10.05;;;;;;;21.47;32.49;101686.50;8594765;33;21055;-75
2022/04/28 17:42:13;;;;;;;14.30;9.07;;;;;;;21.00;32.71;101694.09;8583848;33;20144;-74
2022/04/28 17:47:16;;;;;;;12.70;9.32;;;;;;;18.43;36.66;101695.13;8579234;33;20269;-73
2022/04/28 17:52:21;;;;;;;15.07;10.15;;;;;;;16.79;39.41;101705.34;8581893;33;20484;-74
2022/04/28 18:02:47;;;;;;;15.77;9.70;;;;;;;15.38;42.97;101722.50;8517802;33;20419;-72
2022/04/28 18:07:51;;;;;;;13.48;9.60;;;;;;;15.16;43.66;101726.03;8574666;33;20493;-73
2022/04/28 18:12:55;;;;;;;16.33;10.15;;;;;;;14.83;44.67;101727.69;8579267;33;20422;-73
2022/04/28 18:17:58;;;;;;;17.83;10.27;;;;;;;14.61;45.14;101720.38;8580195;33;20419;-74
2022/04/28 18:23:03;;;;;;;12.55;9.38;;;;;;;14.43;45.73;101719.13;8584317;33;20410;-74
2022/04/28 18:28:07;;;;;;;15.27;9.70;;;;;;;14.14;46.24;101735.66;8582313;33;20163;-73
2022/04/28 18:33:10;;;;;;;19.95;9.25;;;;;;;14.07;46.79;101734.38;8584930;33;20908;-73
2022/04/28 18:48:56;;;;;;;13.80;9.15;;;;;;;13.56;48.50;101743.50;8581997;33;20461;-72
2022/04/28 18:54:01;;;;;;;12.68;9.20;;;;;;;13.37;48.97;101754.75;8583103;33;20184;-73
2022/04/28 18:59:05;;;;;;;15.63;9.13;;;;;;;13.13;50.17;101759.16;8583057;33;20167;-73
2022/04/28 19:04:08;;;;;;;13.88;9.25;;;;;;;13.32;49.46;101766.81;8582724;33;20144;-74
2022/04/28 19:09:13;;;;;;;17.55;9.88;;;;;;;13.09;50.04;101769.31;8582217;33;20422;-74
2022/04/28 19:19:38;;;;;;;15.43;9.73;;;;;;;12.89;50.80;101781.50;8582033;33;20431;-74
2022/04/28 19:24:43;;;;;;;12.50;8.50;;;;;;;12.76;51.58;101784.16;8582453;33;20250;-73
2022/04/28 19:29:47;;;;;;;13.27;9.82;;;;;;;12.48;52.38;101779.78;8580614;33;20155;-73
2022/04/28 19:34:52;;;;;;;16.05;10.20;;;;;;;12.25;52.88;101780.41;8580714;33;20434;-73
2022/04/28 19:39:57;;;;;;;16.60;10.30;;;;;;;12.24;53.24;101776.84;8581189;33;20511;-75
2022/04/28 19:45:00;;;;;;;19.08;11.80;;;;;;;12.19;53.70;101770.88;8578185;33;20171;-75
2022/04/28 19:50:07;;;;;;;15.60;9.90;;;;;;;12.04;53.85;101778.16;8581870;33;20144;-74
2022/04/28 19:55:13;;;;;;;15.63;9.27;;;;;;;11.97;54.09;101779.50;8579172;33;20423;-74
2022/04/28 20:00:17;;;;;;;11.88;8.57;;;;;;;11.84;54.68;101794.72;8576315;33;20159;-75
2022/04/28 20:05:20;;;;;;;14.65;8.63;;;;;;;11.55;55.24;101800.16;8576641;33;20420;-74
2022/04/28 20:10:25;;;;;;;13.05;8.90;;;;;;;11.57;55.30;101802.72;8575504;33;20990;-73
2022/04/28 20:15:29;;;;;;;13.88;8.20;;;;;;;11.54;55.45;101798.41;8576730;33;20549;-74
2022/04/28 20:20:32;;;;;;;12.75;7.30;;;;;;;11.40;56.13;101803.78;8581472;33;21160;-72
2022/04/28 20:25:38;;;;;;;12.75;7.20;;;;;;;11.15;56.05;101807.97;8581124;33;20566;-73
2022/04/28 20:30:42;;;;;;;8.70;6.10;;;;;;;10.96;56.08;101805.50;8554575;33;20438;-73
2022/04/28 20:35:46;;;;;;;10.10;5.47;;;;;;;10.88;55.95;101825.75;8551300;33;20420;-73
2022/04/28 20:40:50;;;;;;;12.35;5.47;;;;;;;10.90;55.57;101818.47;8566729;33;20684;-74
2022/04/28 20:45:54;;;;;;;7.97;5.38;;;;;;;10.74;55.73;101821.19;8581969;33;20479;-73
2022/04/28 20:50:57;;;;;;;7.88;5.40;;;;;;;10.56;55.97;101825.84;8581330;33;20152;-75
2022/04/28 20:56:03;;;;;;;9.40;4.72;;;;;;;10.57;55.67;101832.94;8581230;33;20220;-74
2022/04/28 21:01:06;;;;;;;9.75;5.10;;;;;;;10.46;55.40;101836.22;8581712;33;20147;-74
2022/04/28 21:06:09;;;;;;;9.13;4.70;;;;;;;10.40;55.95;101833.91;8581670;33;20421;-73
2022/04/28 21:11:14;;;;;;;10.95;4.57;;;;;;;10.39;55.45;101835.75;8583450;33;20565;-73
2022/04/28 21:16:17;;;;;;;6.70;3.90;;;;;;;10.22;55.95;101830.44;8577987;33;20140;-74
2022/04/28 21:21:20;;;;;;;13.65;4.30;;;;;;;10.07;55.41;101834.00;8579576;33;20454;-73
2022/04/28 21:26:26;;;;;;;10.93;4.05;;;;;;;10.01;56.13;101837.00;8594762;33;20541;-75
2022/04/28 21:31:29;;;;;;;6.20;4.15;;;;;;;9.87;56.13;101830.63;8595965;33;20155;-74
2022/04/28 21:36:32;;;;;;;9.68;4.38;;;;;;;9.91;55.96;101821.44;8585220;33;20144;-75
2022/04/28 21:41:43;;;;;;;8.27;4.20;;;;;;;9.74;56.43;101829.53;8580956;33;20617;-76
2022/04/28 21:46:46;;;;;;;7.43;4.10;;;;;;;9.74;56.77;101832.19;8576153;33;20590;-76
2022/04/28 21:51:49;;;;;;;8.57;3.95;;;;;;;9.91;56.27;101834.84;8576429;33;20390;-74
2022/04/28 21:56:57;;;;;;;11.70;4.03;;;;;;;9.90;55.91;101832.22;8581204;33;20412;-74
2022/04/28 22:02:00;;;;;;;9.15;4.05;;;;;;;9.83;56.01;101834.38;8583643;33;20243;-76
2022/04/28 22:12:26;;;;;;;6.73;3.43;;;;;;;9.79;55.82;101848.94;8583940;33;20459;-74
2022/04/28 22:17:29;;;;;;;10.93;4.00;;;;;;;9.81;56.36;101847.00;8581535;33;20242;-75
2022/04/28 22:22:32;;;;;;;7.45;4.15;;;;;;;9.65;56.14;101848.78;8582861;33;20581;-75
2022/04/28 22:27:36;;;;;;;7.63;3.85;;;;;;;9.40;56.90;101849.22;8580513;33;20140;-75
2022/04/28 22:32:43;;;;;;;7.45;3.83;;;;;;;9.45;57.27;101845.34;8584589;33;20433;-75
2022/04/28 22:37:48;;;;;;;9.45;4.43;;;;;;;9.49;57.23;101843.41;8583900;33;20140;-74
2022/04/28 22:42:52;;;;;;;11.38;4.53;;;;;;;9.07;57.45;101850.03;8585873;33;20148;-74
2022/04/28 22:47:55;;;;;;;11.23;4.32;;;;;;;8.94;58.11;101854.28;8581837;33;20197;-75
2022/04/28 22:52:58;;;;;;;8.38;4.72;;;;;;;9.08;58.66;101854.47;8580755;33;20150;-75
2022/04/28 22:58:23;;;;;;;10.00;4.72;;;;;;;9.25;58.01;101843.72;8580121;33;20424;-75
2022/04/28 23:03:26;;;;;;;13.63;4.53;;;;;;;9.39;57.59;101839.47;8582702;33;20539;-75
2022/04/28 23:08:29;;;;;;;8.18;4.60;;;;;;;9.28;57.71;101838.19;8585719;33;20415;-75
2022/04/28 23:13:34;;;;;;;12.95;4.55;;;;;;;9.15;57.99;101842.47;8585211;33;20407;-75
2022/04/28 23:18:37;;;;;;;8.35;4.20;;;;;;;9.06;57.91;101837.59;8584705;33;20213;-73
2022/04/28 23:23:40;;;;;;;9.60;5.60;;;;;;;8.95;58.74;101842.66;8582326;33;20458;-75
2022/04/28 23:28:44;;;;;;;8.48;3.97;;;;;;;9.08;58.23;101835.72;8579862;33;20978;-74
2022/04/28 23:33:47;;;;;;;8.95;4.63;;;;;;;9.06;58.60;101830.41;8579991;33;20414;-74
2022/04/28 23:38:51;;;;;;;7.45;4.20;;;;;;;9.03;58.82;101841.31;8577811;33;20791;-75
2022/04/28 23:43:55;;;;;;;9.00;4.60;;;;;;;8.90;59.01;101847.38;8578887;33;20124;-74
2022/04/28 23:48:58;;;;;;;6.22;4.20;;;;;;;8.69;59.26;101850.16;8577702;33;20156;-75
2022/04/28 23:59:23;;;;;;;9.10;4.82;;;;;;;8.14;61.25;101851.00;8580828;33;20409;-75
